Wednesday, November 22, 2017, 8:57 AM GMT
Back to Local

CWPE, Point Lepreau, N. B.

Location: , , Canada Lat: 45.067
Local Time: 8:57 AM GMT ( 8:57 GMT) Lon: -66.467
Time Zone: GMT Elev: 3 ft

Show me the last for .
Show Coded

Time T Td Feel RH Dir Speed Gust Alt SLP Vis Weather Sky Remarks
2017-11-22 08:00 51 47 - 87 220° 8 - - 30.00 0 None
2017-11-22 07:00 51 48 - 88 220° 8 - - 30.01 0 None
2017-11-22 06:00 51 47 - 86 220° 10 20 - 30.00 0 None
2017-11-22 05:00 52 48 - 86 210° 13 21 - 30.01 0 None
2017-11-22 04:00 52 48 - 85 210° 14 24 - 30.01 0 None
2017-11-22 03:00 52 47 - 84 210° 14 22 - 30.01 0 None
2017-11-22 02:00 52 47 - 85 210° 14 24 - 29.99 0 None
2017-11-22 01:00 52 47 - 83 210° 15 24 - 30.00 0 None
2017-11-22 00:00 51 47 - 83 200° 14 24 - 30.01 0 None
2017-11-21 23:00 50 46 - 86 190° 15 26 - 30.00 0 None
2017-11-21 22:00 50 44 43 79 200° 15 23 - 30.01 0 None
2017-11-21 21:00 50 42 42 74 200° 13 28 - 30.01 0 None
2017-11-21 20:00 49 43 43 79 200° 14 21 - 30.01 0 None
2017-11-21 19:00 46 43 37 88 180° 17 24 - 30.02 0 None
2017-11-21 18:00 41 37 33 87 170° 15 - - 30.05 0 None
2017-11-21 17:00 38 31 30 76 190° 10 - - 30.08 0 None
2017-11-21 16:00 34 25 29 68 220° 6 - - 30.11 0 None
2017-11-21 15:00 32 20 29 61 250° 3 - - 30.13 0 None
2017-11-21 14:00 28 15 21 59 270° 6 - - 30.13 0 None
2017-11-21 13:00 23 12 18 62 330° 3 - - 30.12 0 None
2017-11-21 12:00 21 13 12 70 310° 7 - - 30.10 0 None
2017-11-21 11:00 20 10 4 63 290° 10 20 - 30.11 0 None
2017-11-21 10:00 20 11 4 66 290° 12 21 - 30.09 0 None
2017-11-21 09:00 19 10 2 65 300° 12 24 - 30.07 0 None

Support USWX by starting your Amazon purchase here.